sensor_id;sensor_type;location;lat;lon;timestamp;P1;durP1;ratioP1;P2;durP2;ratioP2
21334;SDS011;10826;52.536;13.432;2022-09-01T00:01:39;1.03;;;1.00;;
21334;SDS011;10826;52.536;13.432;2022-09-01T00:04:09;0.80;;;0.80;;
21334;SDS011;10826;52.536;13.432;2022-09-01T00:06:40;0.90;;;0.83;;
21334;SDS011;10826;52.536;13.432;2022-09-01T00:09:07;1.10;;;1.00;;
21334;SDS011;10826;52.536;13.432;2022-09-01T00:11:38;0.77;;;0.60;;
21334;SDS011;10826;52.536;13.432;2022-09-01T00:14:07;0.77;;;0.70;;
21334;SDS011;10826;52.536;13.432;2022-09-01T00:16:34;2.43;;;1.37;;
21334;SDS011;10826;52.536;13.432;2022-09-01T00:19:00;2.40;;;0.93;;
21334;SDS011;10826;52.536;13.432;2022-09-01T00:21:28;0.83;;;0.70;;
21334;SDS011;10826;52.536;13.432;2022-09-01T00:24:00;1.10;;;1.00;;
21334;SDS011;10826;52.536;13.432;2022-09-01T00:26:26;2.00;;;0.80;;
21334;SDS011;10826;52.536;13.432;2022-09-01T00:28:52;2.70;;;0.80;;
21334;SDS011;10826;52.536;13.432;2022-09-01T00:31:19;2.13;;;1.00;;
21334;SDS011;10826;52.536;13.432;2022-09-01T00:33:47;3.63;;;1.00;;
21334;SDS011;10826;52.536;13.432;2022-09-01T00:36:14;1.10;;;1.00;;
21334;SDS011;10826;52.536;13.432;2022-09-01T00:38:41;1.10;;;0.80;;
21334;SDS011;10826;52.536;13.432;2022-09-01T00:41:08;0.97;;;0.90;;
21334;SDS011;10826;52.536;13.432;2022-09-01T00:46:24;1.20;;;0.93;;
21334;SDS011;10826;52.536;13.432;2022-09-01T00:48:58;2.33;;;0.90;;
21334;SDS011;10826;52.536;13.432;2022-09-01T00:51:35;1.90;;;1.10;;
21334;SDS011;10826;52.536;13.432;2022-09-01T00:54:05;2.37;;;1.30;;
21334;SDS011;10826;52.536;13.432;2022-09-01T00:56:38;1.03;;;1.03;;
21334;SDS011;10826;52.536;13.432;2022-09-01T00:59:06;1.90;;;1.00;;
21334;SDS011;10826;52.536;13.432;2022-09-01T01:01:35;1.70;;;1.07;;
21334;SDS011;10826;52.536;13.432;2022-09-01T01:04:03;1.00;;;1.00;;
21334;SDS011;10826;52.536;13.432;2022-09-01T01:06:40;1.23;;;1.10;;
21334;SDS011;10826;52.536;13.432;2022-09-01T01:09:19;0.70;;;0.70;;
21334;SDS011;10826;52.536;13.432;2022-09-01T01:11:46;1.43;;;1.07;;
21334;SDS011;10826;52.536;13.432;2022-09-01T01:14:14;1.43;;;1.20;;
21334;SDS011;10826;52.536;13.432;2022-09-01T01:16:45;1.13;;;1.00;;
21334;SDS011;10826;52.536;13.432;2022-09-01T01:25:24;1.50;;;1.40;;
21334;SDS011;10826;52.536;13.432;2022-09-01T01:27:51;1.30;;;1.13;;
21334;SDS011;10826;52.536;13.432;2022-09-01T01:30:31;2.93;;;1.40;;
21334;SDS011;10826;52.536;13.432;2022-09-01T01:32:59;1.83;;;1.47;;
21334;SDS011;10826;52.536;13.432;2022-09-01T01:35:26;1.63;;;1.53;;
21334;SDS011;10826;52.536;13.432;2022-09-01T01:37:53;2.07;;;1.60;;
21334;SDS011;10826;52.536;13.432;2022-09-01T01:40:20;1.60;;;1.50;;
21334;SDS011;10826;52.536;13.432;2022-09-01T01:42:50;3.80;;;1.43;;
21334;SDS011;10826;52.536;13.432;2022-09-01T01:45:19;2.57;;;0.97;;
21334;SDS011;10826;52.536;13.432;2022-09-01T01:47:49;1.27;;;1.10;;
21334;SDS011;10826;52.536;13.432;2022-09-01T01:50:28;1.73;;;1.63;;
21334;SDS011;10826;52.536;13.432;2022-09-01T01:53:03;1.00;;;0.93;;
21334;SDS011;10826;52.536;13.432;2022-09-01T01:55:32;1.27;;;1.10;;
21334;SDS011;10826;52.536;13.432;2022-09-01T01:57:58;0.93;;;0.93;;
21334;SDS011;10826;52.536;13.432;2022-09-01T02:00:26;1.40;;;1.30;;
21334;SDS011;10826;52.536;13.432;2022-09-01T02:02:58;1.47;;;1.23;;
21334;SDS011;10826;52.536;13.432;2022-09-01T02:05:29;1.60;;;1.30;;
21334;SDS011;10826;52.536;13.432;2022-09-01T02:08:00;1.97;;;1.30;;
21334;SDS011;10826;52.536;13.432;2022-09-01T02:10:32;2.90;;;1.30;;
21334;SDS011;10826;52.536;13.432;2022-09-01T02:13:04;2.47;;;1.07;;
21334;SDS011;10826;52.536;13.432;2022-09-01T02:15:36;0.87;;;0.87;;
21334;SDS011;10826;52.536;13.432;2022-09-01T02:18:09;1.30;;;1.20;;
21334;SDS011;10826;52.536;13.432;2022-09-01T02:20:45;0.97;;;0.97;;
21334;SDS011;10826;52.536;13.432;2022-09-01T02:23:15;2.70;;;1.60;;
21334;SDS011;10826;52.536;13.432;2022-09-01T02:25:44;1.40;;;1.30;;
21334;SDS011;10826;52.536;13.432;2022-09-01T02:28:11;3.30;;;2.20;;
21334;SDS011;10826;52.536;13.432;2022-09-01T02:30:40;3.87;;;2.63;;
21334;SDS011;10826;52.536;13.432;2022-09-01T02:33:13;2.90;;;1.80;;
21334;SDS011;10826;52.536;13.432;2022-09-01T02:35:47;1.93;;;1.73;;
21334;SDS011;10826;52.536;13.432;2022-09-01T02:38:19;2.13;;;1.63;;
21334;SDS011;10826;52.536;13.432;2022-09-01T02:40:50;2.93;;;1.47;;
21334;SDS011;10826;52.536;13.432;2022-09-01T02:43:18;2.13;;;1.37;;
21334;SDS011;10826;52.536;13.432;2022-09-01T02:45:46;2.30;;;2.10;;
21334;SDS011;10826;52.536;13.432;2022-09-01T02:48:28;3.73;;;1.70;;
21334;SDS011;10826;52.536;13.432;2022-09-01T02:51:00;1.77;;;1.43;;
21334;SDS011;10826;52.536;13.432;2022-09-01T02:53:32;1.13;;;1.03;;
21334;SDS011;10826;52.536;13.432;2022-09-01T02:56:01;3.30;;;1.43;;
21334;SDS011;10826;52.536;13.432;2022-09-01T02:58:34;1.10;;;1.03;;
21334;SDS011;10826;52.536;13.432;2022-09-01T03:01:11;3.00;;;1.20;;
21334;SDS011;10826;52.536;13.432;2022-09-01T03:03:47;2.40;;;1.10;;
21334;SDS011;10826;52.536;13.432;2022-09-01T03:06:15;1.90;;;1.20;;
21334;SDS011;10826;52.536;13.432;2022-09-01T03:08:45;2.20;;;1.60;;
21334;SDS011;10826;52.536;13.432;2022-09-01T03:11:11;1.27;;;1.17;;
21334;SDS011;10826;52.536;13.432;2022-09-01T03:13:38;1.27;;;1.17;;
21334;SDS011;10826;52.536;13.432;2022-09-01T03:16:05;1.43;;;1.33;;
21334;SDS011;10826;52.536;13.432;2022-09-01T03:18:32;1.33;;;1.27;;
21334;SDS011;10826;52.536;13.432;2022-09-01T03:20:59;1.40;;;1.30;;
21334;SDS011;10826;52.536;13.432;2022-09-01T03:23:27;6.27;;;1.90;;
21334;SDS011;10826;52.536;13.432;2022-09-01T03:25:59;1.93;;;1.83;;
21334;SDS011;10826;52.536;13.432;2022-09-01T03:28:25;1.90;;;1.80;;
21334;SDS011;10826;52.536;13.432;2022-09-01T03:30:53;1.90;;;1.80;;
21334;SDS011;10826;52.536;13.432;2022-09-01T03:33:21;1.77;;;1.67;;
21334;SDS011;10826;52.536;13.432;2022-09-01T03:35:49;1.80;;;1.70;;
21334;SDS011;10826;52.536;13.432;2022-09-01T03:38:16;2.50;;;1.97;;
21334;SDS011;10826;52.536;13.432;2022-09-01T03:40:52;3.07;;;1.80;;
21334;SDS011;10826;52.536;13.432;2022-09-01T03:43:25;2.93;;;1.70;;
21334;SDS011;10826;52.536;13.432;2022-09-01T03:45:56;2.50;;;1.70;;
21334;SDS011;10826;52.536;13.432;2022-09-01T03:48:24;2.67;;;2.10;;
21334;SDS011;10826;52.536;13.432;2022-09-01T03:50:54;5.07;;;2.43;;
21334;SDS011;10826;52.536;13.432;2022-09-01T03:53:26;2.20;;;2.00;;
21334;SDS011;10826;52.536;13.432;2022-09-01T03:55:56;5.10;;;2.40;;
21334;SDS011;10826;52.536;13.432;2022-09-01T03:58:23;3.13;;;2.00;;
21334;SDS011;10826;52.536;13.432;2022-09-01T04:00:51;3.23;;;1.97;;
21334;SDS011;10826;52.536;13.432;2022-09-01T04:03:27;3.27;;;2.00;;
21334;SDS011;10826;52.536;13.432;2022-09-01T04:05:57;1.47;;;1.37;;
21334;SDS011;10826;52.536;13.432;2022-09-01T04:08:25;1.70;;;1.50;;
21334;SDS011;10826;52.536;13.432;2022-09-01T04:10:55;1.70;;;1.60;;
21334;SDS011;10826;52.536;13.432;2022-09-01T04:13:28;2.20;;;1.60;;
21334;SDS011;10826;52.536;13.432;2022-09-01T04:16:00;3.37;;;1.80;;
21334;SDS011;10826;52.536;13.432;2022-09-01T04:18:26;1.93;;;1.77;;
21334;SDS011;10826;52.536;13.432;2022-09-01T04:20:56;2.67;;;1.50;;
21334;SDS011;10826;52.536;13.432;2022-09-01T04:23:31;1.80;;;1.70;;
21334;SDS011;10826;52.536;13.432;2022-09-01T04:26:06;5.07;;;1.83;;
21334;SDS011;10826;52.536;13.432;2022-09-01T04:28:42;2.20;;;2.00;;
21334;SDS011;10826;52.536;13.432;2022-09-01T04:31:19;1.93;;;1.83;;
21334;SDS011;10826;52.536;13.432;2022-09-01T04:33:47;3.33;;;1.90;;
21334;SDS011;10826;52.536;13.432;2022-09-01T04:36:18;5.43;;;2.63;;
21334;SDS011;10826;52.536;13.432;2022-09-01T04:38:55;2.90;;;2.70;;
21334;SDS011;10826;52.536;13.432;2022-09-01T04:41:26;4.13;;;2.47;;
21334;SDS011;10826;52.536;13.432;2022-09-01T04:43:58;4.77;;;2.10;;
21334;SDS011;10826;52.536;13.432;2022-09-01T04:46:29;5.07;;;2.67;;
21334;SDS011;10826;52.536;13.432;2022-09-01T04:49:00;3.60;;;2.23;;
21334;SDS011;10826;52.536;13.432;2022-09-01T04:51:38;3.43;;;2.73;;
21334;SDS011;10826;52.536;13.432;2022-09-01T04:54:09;2.73;;;2.53;;
21334;SDS011;10826;52.536;13.432;2022-09-01T04:56:40;4.13;;;2.60;;
21334;SDS011;10826;52.536;13.432;2022-09-01T04:59:11;3.67;;;3.00;;
21334;SDS011;10826;52.536;13.432;2022-09-01T05:01:38;4.17;;;2.80;;
21334;SDS011;10826;52.536;13.432;2022-09-01T05:04:09;3.63;;;3.03;;
21334;SDS011;10826;52.536;13.432;2022-09-01T05:06:46;3.07;;;2.40;;
21334;SDS011;10826;52.536;13.432;2022-09-01T05:09:22;3.23;;;2.57;;
21334;SDS011;10826;52.536;13.432;2022-09-01T05:11:51;4.80;;;2.20;;
21334;SDS011;10826;52.536;13.432;2022-09-01T05:14:17;2.53;;;2.33;;
21334;SDS011;10826;52.536;13.432;2022-09-01T05:16:44;4.27;;;2.60;;
21334;SDS011;10826;52.536;13.432;2022-09-01T05:19:10;3.37;;;2.40;;
21334;SDS011;10826;52.536;13.432;2022-09-01T05:21:41;6.43;;;2.60;;
21334;SDS011;10826;52.536;13.432;2022-09-01T05:24:14;4.37;;;3.07;;
21334;SDS011;10826;52.536;13.432;2022-09-01T05:26:45;4.17;;;3.67;;
21334;SDS011;10826;52.536;13.432;2022-09-01T05:29:15;4.43;;;3.00;;
21334;SDS011;10826;52.536;13.432;2022-09-01T05:31:46;4.73;;;2.73;;
21334;SDS011;10826;52.536;13.432;2022-09-01T05:34:13;2.87;;;2.67;;
21334;SDS011;10826;52.536;13.432;2022-09-01T05:36:44;2.50;;;2.30;;
21334;SDS011;10826;52.536;13.432;2022-09-01T05:39:15;3.50;;;2.30;;
21334;SDS011;10826;52.536;13.432;2022-09-01T05:41:41;2.60;;;2.40;;
21334;SDS011;10826;52.536;13.432;2022-09-01T05:44:08;7.67;;;2.90;;
21334;SDS011;10826;52.536;13.432;2022-09-01T05:46:36;5.73;;;2.47;;
21334;SDS011;10826;52.536;13.432;2022-09-01T05:49:04;57.47;;;6.77;;
21334;SDS011;10826;52.536;13.432;2022-09-01T05:51:32;51.47;;;5.20;;
21334;SDS011;10826;52.536;13.432;2022-09-01T05:54:00;11.17;;;2.70;;
21334;SDS011;10826;52.536;13.432;2022-09-01T05:56:28;8.60;;;2.53;;
21334;SDS011;10826;52.536;13.432;2022-09-01T05:58:55;7.20;;;2.90;;
21334;SDS011;10826;52.536;13.432;2022-09-01T06:01:25;2.93;;;2.63;;
21334;SDS011;10826;52.536;13.432;2022-09-01T06:03:55;4.70;;;2.53;;
21334;SDS011;10826;52.536;13.432;2022-09-01T06:06:24;4.73;;;2.60;;
21334;SDS011;10826;52.536;13.432;2022-09-01T06:08:54;3.73;;;2.17;;
21334;SDS011;10826;52.536;13.432;2022-09-01T06:11:23;2.60;;;2.17;;
21334;SDS011;10826;52.536;13.432;2022-09-01T06:13:51;4.90;;;3.00;;
21334;SDS011;10826;52.536;13.432;2022-09-01T06:16:20;9.67;;;3.00;;
21334;SDS011;10826;52.536;13.432;2022-09-01T06:18:48;6.00;;;2.50;;
21334;SDS011;10826;52.536;13.432;2022-09-01T06:21:20;8.87;;;2.63;;
21334;SDS011;10826;52.536;13.432;2022-09-01T06:23:49;3.20;;;2.83;;
21334;SDS011;10826;52.536;13.432;2022-09-01T06:26:25;3.57;;;2.20;;
21334;SDS011;10826;52.536;13.432;2022-09-01T06:29:00;2.23;;;2.03;;
21334;SDS011;10826;52.536;13.432;2022-09-01T06:31:30;6.83;;;2.73;;
21334;SDS011;10826;52.536;13.432;2022-09-01T06:34:03;2.60;;;1.70;;
21334;SDS011;10826;52.536;13.432;2022-09-01T06:36:34;3.20;;;1.50;;
21334;SDS011;10826;52.536;13.432;2022-09-01T06:39:04;3.33;;;1.87;;
21334;SDS011;10826;52.536;13.432;2022-09-01T06:41:32;2.97;;;1.80;;
21334;SDS011;10826;52.536;13.432;2022-09-01T06:44:24;4.77;;;1.70;;
21334;SDS011;10826;52.536;13.432;2022-09-01T06:46:50;2.70;;;1.73;;
21334;SDS011;10826;52.536;13.432;2022-09-01T06:49:17;1.60;;;1.50;;
21334;SDS011;10826;52.536;13.432;2022-09-01T06:51:45;1.87;;;1.37;;
21334;SDS011;10826;52.536;13.432;2022-09-01T06:54:13;1.90;;;1.73;;
21334;SDS011;10826;52.536;13.432;2022-09-01T06:56:40;4.07;;;1.50;;
21334;SDS011;10826;52.536;13.432;2022-09-01T06:59:07;2.57;;;1.60;;
21334;SDS011;10826;52.536;13.432;2022-09-01T07:01:33;2.10;;;1.80;;
21334;SDS011;10826;52.536;13.432;2022-09-01T07:04:02;8.00;;;1.60;;
21334;SDS011;10826;52.536;13.432;2022-09-01T07:06:28;1.30;;;1.20;;
21334;SDS011;10826;52.536;13.432;2022-09-01T07:08:56;1.70;;;1.03;;
21334;SDS011;10826;52.536;13.432;2022-09-01T07:11:26;1.43;;;1.33;;
21334;SDS011;10826;52.536;13.432;2022-09-01T07:13:57;1.57;;;1.30;;
21334;SDS011;10826;52.536;13.432;2022-09-01T07:16:30;1.43;;;1.33;;
21334;SDS011;10826;52.536;13.432;2022-09-01T07:19:06;2.40;;;1.20;;
21334;SDS011;10826;52.536;13.432;2022-09-01T07:21:39;1.83;;;1.10;;
21334;SDS011;10826;52.536;13.432;2022-09-01T07:24:07;4.20;;;1.23;;
21334;SDS011;10826;52.536;13.432;2022-09-01T07:26:36;1.67;;;1.00;;
21334;SDS011;10826;52.536;13.432;2022-09-01T07:29:04;1.73;;;1.30;;
21334;SDS011;10826;52.536;13.432;2022-09-01T07:31:32;2.03;;;1.30;;
21334;SDS011;10826;52.536;13.432;2022-09-01T07:34:06;3.10;;;1.63;;
21334;SDS011;10826;52.536;13.432;2022-09-01T07:36:41;1.33;;;0.90;;
21334;SDS011;10826;52.536;13.432;2022-09-01T07:39:10;1.80;;;1.20;;
21334;SDS011;10826;52.536;13.432;2022-09-01T07:41:38;2.97;;;0.93;;
21334;SDS011;10826;52.536;13.432;2022-09-01T07:44:05;1.10;;;1.00;;
21334;SDS011;10826;52.536;13.432;2022-09-01T07:46:34;5.63;;;1.30;;
21334;SDS011;10826;52.536;13.432;2022-09-01T07:49:01;1.33;;;1.23;;
21334;SDS011;10826;52.536;13.432;2022-09-01T07:51:28;1.43;;;1.30;;
21334;SDS011;10826;52.536;13.432;2022-09-01T07:53:57;2.17;;;1.13;;
21334;SDS011;10826;52.536;13.432;2022-09-01T07:56:23;3.53;;;1.50;;
21334;SDS011;10826;52.536;13.432;2022-09-01T07:58:49;3.43;;;1.17;;
21334;SDS011;10826;52.536;13.432;2022-09-01T08:01:21;4.10;;;1.10;;
21334;SDS011;10826;52.536;13.432;2022-09-01T08:03:52;1.43;;;0.90;;
21334;SDS011;10826;52.536;13.432;2022-09-01T08:06:23;2.67;;;1.30;;
21334;SDS011;10826;52.536;13.432;2022-09-01T08:08:53;2.20;;;1.20;;
21334;SDS011;10826;52.536;13.432;2022-09-01T08:11:23;0.97;;;0.90;;
21334;SDS011;10826;52.536;13.432;2022-09-01T08:13:54;1.43;;;1.13;;
21334;SDS011;10826;52.536;13.432;2022-09-01T08:16:27;1.43;;;0.87;;
21334;SDS011;10826;52.536;13.432;2022-09-01T08:18:55;8.23;;;1.27;;
21334;SDS011;10826;52.536;13.432;2022-09-01T08:21:23;2.27;;;0.83;;
21334;SDS011;10826;52.536;13.432;2022-09-01T08:23:51;2.10;;;1.00;;
21334;SDS011;10826;52.536;13.432;2022-09-01T08:26:20;2.73;;;0.90;;
21334;SDS011;10826;52.536;13.432;2022-09-01T08:28:50;9.53;;;1.47;;
21334;SDS011;10826;52.536;13.432;2022-09-01T08:31:19;0.80;;;0.80;;
21334;SDS011;10826;52.536;13.432;2022-09-01T08:33:47;1.30;;;0.97;;
21334;SDS011;10826;52.536;13.432;2022-09-01T08:36:15;1.97;;;1.00;;
21334;SDS011;10826;52.536;13.432;2022-09-01T08:38:41;0.87;;;0.70;;
21334;SDS011;10826;52.536;13.432;2022-09-01T08:41:14;2.40;;;1.03;;
21334;SDS011;10826;52.536;13.432;2022-09-01T08:47:01;0.97;;;0.90;;
21334;SDS011;10826;52.536;13.432;2022-09-01T08:49:33;2.33;;;0.80;;
21334;SDS011;10826;52.536;13.432;2022-09-01T08:54:45;1.13;;;0.90;;
21334;SDS011;10826;52.536;13.432;2022-09-01T09:00:05;0.90;;;0.90;;
21334;SDS011;10826;52.536;13.432;2022-09-01T09:06:02;6.00;;;0.90;;
21334;SDS011;10826;52.536;13.432;2022-09-01T09:17:01;0.77;;;0.77;;
21334;SDS011;10826;52.536;13.432;2022-09-01T09:19:41;6.70;;;1.03;;
21334;SDS011;10826;52.536;13.432;2022-09-01T09:22:10;0.77;;;0.77;;
21334;SDS011;10826;52.536;13.432;2022-09-01T09:24:48;1.47;;;1.00;;
21334;SDS011;10826;52.536;13.432;2022-09-01T09:27:30;1.57;;;0.90;;
21334;SDS011;10826;52.536;13.432;2022-09-01T09:30:00;0.70;;;0.70;;
21334;SDS011;10826;52.536;13.432;2022-09-01T09:35:34;0.87;;;0.47;;
21334;SDS011;10826;52.536;13.432;2022-09-01T09:41:06;0.70;;;0.70;;
21334;SDS011;10826;52.536;13.432;2022-09-01T09:43:55;1.57;;;0.73;;
21334;SDS011;10826;52.536;13.432;2022-09-01T09:52:10;0.80;;;0.80;;
21334;SDS011;10826;52.536;13.432;2022-09-01T09:54:58;6.60;;;1.07;;
21334;SDS011;10826;52.536;13.432;2022-09-01T09:57:46;1.50;;;0.90;;
21334;SDS011;10826;52.536;13.432;2022-09-01T10:00:19;3.13;;;0.90;;
21334;SDS011;10826;52.536;13.432;2022-09-01T10:03:06;0.87;;;0.80;;
21334;SDS011;10826;52.536;13.432;2022-09-01T10:05:44;0.77;;;0.77;;
21334;SDS011;10826;52.536;13.432;2022-09-01T10:08:38;0.83;;;0.70;;
21334;SDS011;10826;52.536;13.432;2022-09-01T10:11:04;1.13;;;1.10;;
21334;SDS011;10826;52.536;13.432;2022-09-01T10:13:31;0.70;;;0.60;;
21334;SDS011;10826;52.536;13.432;2022-09-01T10:16:13;0.87;;;0.60;;
21334;SDS011;10826;52.536;13.432;2022-09-01T10:18:50;4.50;;;1.00;;
21334;SDS011;10826;52.536;13.432;2022-09-01T10:21:20;0.83;;;0.70;;
21334;SDS011;10826;52.536;13.432;2022-09-01T10:23:59;0.93;;;0.90;;
21334;SDS011;10826;52.536;13.432;2022-09-01T10:26:52;0.80;;;0.53;;
21334;SDS011;10826;52.536;13.432;2022-09-01T10:31:58;1.17;;;1.03;;
21334;SDS011;10826;52.536;13.432;2022-09-01T10:34:32;1.40;;;0.57;;
21334;SDS011;10826;52.536;13.432;2022-09-01T10:37:03;2.00;;;0.90;;
21334;SDS011;10826;52.536;13.432;2022-09-01T10:39:31;0.50;;;0.50;;
21334;SDS011;10826;52.536;13.432;2022-09-01T10:41:58;1.53;;;0.60;;
21334;SDS011;10826;52.536;13.432;2022-09-01T10:44:33;0.70;;;0.70;;
21334;SDS011;10826;52.536;13.432;2022-09-01T10:50:03;0.57;;;0.57;;
21334;SDS011;10826;52.536;13.432;2022-09-01T10:53:04;0.80;;;0.80;;
21334;SDS011;10826;52.536;13.432;2022-09-01T10:55:40;3.60;;;0.90;;
21334;SDS011;10826;52.536;13.432;2022-09-01T10:58:14;0.90;;;0.80;;
21334;SDS011;10826;52.536;13.432;2022-09-01T11:01:00;1.80;;;0.93;;
21334;SDS011;10826;52.536;13.432;2022-09-01T11:05:59;2.83;;;0.83;;
21334;SDS011;10826;52.536;13.432;2022-09-01T11:10:58;1.33;;;0.70;;
21334;SDS011;10826;52.536;13.432;2022-09-01T11:13:56;3.77;;;0.70;;
21334;SDS011;10826;52.536;13.432;2022-09-01T11:16:29;1.80;;;0.80;;
21334;SDS011;10826;52.536;13.432;2022-09-01T11:22:13;3.83;;;0.90;;
21334;SDS011;10826;52.536;13.432;2022-09-01T11:24:46;1.17;;;0.67;;
21334;SDS011;10826;52.536;13.432;2022-09-01T11:27:58;3.67;;;0.90;;
21334;SDS011;10826;52.536;13.432;2022-09-01T11:30:33;0.70;;;0.67;;
21334;SDS011;10826;52.536;13.432;2022-09-01T11:36:05;0.80;;;0.80;;
21334;SDS011;10826;52.536;13.432;2022-09-01T11:47:19;1.70;;;0.60;;
21334;SDS011;10826;52.536;13.432;2022-09-01T11:49:56;7.07;;;1.00;;
21334;SDS011;10826;52.536;13.432;2022-09-01T11:52:31;4.00;;;0.87;;
21334;SDS011;10826;52.536;13.432;2022-09-01T11:55:03;5.80;;;1.27;;
21334;SDS011;10826;52.536;13.432;2022-09-01T11:57:32;1.87;;;0.80;;
21334;SDS011;10826;52.536;13.432;2022-09-01T12:00:08;22.07;;;1.40;;
21334;SDS011;10826;52.536;13.432;2022-09-01T12:02:45;1.77;;;0.77;;
21334;SDS011;10826;52.536;13.432;2022-09-01T12:05:26;7.10;;;1.23;;
21334;SDS011;10826;52.536;13.432;2022-09-01T12:08:11;13.93;;;1.67;;
21334;SDS011;10826;52.536;13.432;2022-09-01T12:10:42;10.60;;;1.20;;
21334;SDS011;10826;52.536;13.432;2022-09-01T12:13:10;4.93;;;1.00;;
21334;SDS011;10826;52.536;13.432;2022-09-01T12:15:50;4.73;;;0.80;;
21334;SDS011;10826;52.536;13.432;2022-09-01T12:18:27;2.20;;;0.80;;
21334;SDS011;10826;52.536;13.432;2022-09-01T12:21:04;2.33;;;0.67;;
21334;SDS011;10826;52.536;13.432;2022-09-01T12:23:37;2.20;;;1.83;;
21334;SDS011;10826;52.536;13.432;2022-09-01T12:26:08;1.50;;;0.47;;
21334;SDS011;10826;52.536;13.432;2022-09-01T12:28:42;2.10;;;0.60;;
21334;SDS011;10826;52.536;13.432;2022-09-01T12:31:27;1.07;;;0.60;;
21334;SDS011;10826;52.536;13.432;2022-09-01T12:33:53;3.60;;;0.53;;
21334;SDS011;10826;52.536;13.432;2022-09-01T12:36:31;0.50;;;0.47;;
21334;SDS011;10826;52.536;13.432;2022-09-01T12:41:42;1.77;;;0.53;;
21334;SDS011;10826;52.536;13.432;2022-09-01T12:47:03;1.17;;;0.70;;
21334;SDS011;10826;52.536;13.432;2022-09-01T12:49:46;1.07;;;0.97;;
21334;SDS011;10826;52.536;13.432;2022-09-01T12:58:02;0.80;;;0.80;;
21334;SDS011;10826;52.536;13.432;2022-09-01T13:00:33;6.17;;;1.17;;
21334;SDS011;10826;52.536;13.432;2022-09-01T13:03:18;1.13;;;0.40;;
21334;SDS011;10826;52.536;13.432;2022-09-01T13:05:44;0.57;;;0.40;;
21334;SDS011;10826;52.536;13.432;2022-09-01T13:08:17;2.00;;;0.60;;
21334;SDS011;10826;52.536;13.432;2022-09-01T13:10:48;0.60;;;0.60;;
21334;SDS011;10826;52.536;13.432;2022-09-01T13:13:17;1.10;;;1.00;;
21334;SDS011;10826;52.536;13.432;2022-09-01T13:15:47;6.60;;;4.50;;
21334;SDS011;10826;52.536;13.432;2022-09-01T13:18:16;4.33;;;2.93;;
21334;SDS011;10826;52.536;13.432;2022-09-01T13:20:45;2.07;;;1.87;;
21334;SDS011;10826;52.536;13.432;2022-09-01T13:23:13;14.60;;;2.07;;
21334;SDS011;10826;52.536;13.432;2022-09-01T13:25:39;14.77;;;1.60;;
21334;SDS011;10826;52.536;13.432;2022-09-01T13:28:08;5.87;;;1.60;;
21334;SDS011;10826;52.536;13.432;2022-09-01T13:30:35;6.63;;;1.90;;
21334;SDS011;10826;52.536;13.432;2022-09-01T13:33:02;7.47;;;1.77;;
21334;SDS011;10826;52.536;13.432;2022-09-01T13:35:29;19.70;;;2.97;;
21334;SDS011;10826;52.536;13.432;2022-09-01T13:37:55;4.13;;;1.57;;
21334;SDS011;10826;52.536;13.432;2022-09-01T13:40:22;4.37;;;1.37;;
21334;SDS011;10826;52.536;13.432;2022-09-01T13:42:49;2.40;;;1.27;;
21334;SDS011;10826;52.536;13.432;2022-09-01T13:45:18;1.53;;;1.00;;
21334;SDS011;10826;52.536;13.432;2022-09-01T13:47:47;1.83;;;0.63;;
21334;SDS011;10826;52.536;13.432;2022-09-01T13:50:16;3.30;;;0.70;;
21334;SDS011;10826;52.536;13.432;2022-09-01T13:52:47;1.37;;;0.70;;
21334;SDS011;10826;52.536;13.432;2022-09-01T13:55:26;5.33;;;1.10;;
21334;SDS011;10826;52.536;13.432;2022-09-01T13:57:56;2.47;;;1.13;;
21334;SDS011;10826;52.536;13.432;2022-09-01T14:00:25;1.40;;;1.30;;
21334;SDS011;10826;52.536;13.432;2022-09-01T14:02:58;5.17;;;0.90;;
21334;SDS011;10826;52.536;13.432;2022-09-01T14:05:32;1.90;;;0.80;;
21334;SDS011;10826;52.536;13.432;2022-09-01T14:08:04;1.63;;;0.93;;
21334;SDS011;10826;52.536;13.432;2022-09-01T14:10:32;1.20;;;0.80;;
21334;SDS011;10826;52.536;13.432;2022-09-01T14:13:04;1.17;;;1.07;;
21334;SDS011;10826;52.536;13.432;2022-09-01T14:15:32;1.37;;;1.10;;
21334;SDS011;10826;52.536;13.432;2022-09-01T14:17:58;2.20;;;1.07;;
21334;SDS011;10826;52.536;13.432;2022-09-01T14:20:27;1.00;;;0.90;;
21334;SDS011;10826;52.536;13.432;2022-09-01T14:23:00;3.60;;;0.50;;
21334;SDS011;10826;52.536;13.432;2022-09-01T14:25:29;1.63;;;0.90;;
21334;SDS011;10826;52.536;13.432;2022-09-01T14:27:55;1.20;;;0.60;;
21334;SDS011;10826;52.536;13.432;2022-09-01T14:30:23;1.07;;;0.60;;
21334;SDS011;10826;52.536;13.432;2022-09-01T14:32:51;2.80;;;1.10;;
21334;SDS011;10826;52.536;13.432;2022-09-01T14:35:19;0.60;;;0.60;;
21334;SDS011;10826;52.536;13.432;2022-09-01T14:37:53;1.27;;;0.60;;
21334;SDS011;10826;52.536;13.432;2022-09-01T14:40:20;1.10;;;0.60;;
21334;SDS011;10826;52.536;13.432;2022-09-01T14:42:48;0.93;;;0.73;;
21334;SDS011;10826;52.536;13.432;2022-09-01T14:45:18;1.43;;;1.10;;
21334;SDS011;10826;52.536;13.432;2022-09-01T14:47:48;1.00;;;0.83;;
21334;SDS011;10826;52.536;13.432;2022-09-01T14:50:18;12.23;;;1.80;;
21334;SDS011;10826;52.536;13.432;2022-09-01T14:52:46;1.47;;;0.97;;
21334;SDS011;10826;52.536;13.432;2022-09-01T14:55:15;0.60;;;0.57;;
21334;SDS011;10826;52.536;13.432;2022-09-01T14:57:41;2.73;;;1.00;;
21334;SDS011;10826;52.536;13.432;2022-09-01T15:00:08;1.07;;;1.00;;
21334;SDS011;10826;52.536;13.432;2022-09-01T15:02:37;0.90;;;0.90;;
21334;SDS011;10826;52.536;13.432;2022-09-01T15:05:05;1.57;;;0.60;;
21334;SDS011;10826;52.536;13.432;2022-09-01T15:07:33;2.63;;;0.70;;
21334;SDS011;10826;52.536;13.432;2022-09-01T15:09:59;0.87;;;0.87;;
21334;SDS011;10826;52.536;13.432;2022-09-01T15:12:25;1.40;;;1.20;;
21334;SDS011;10826;52.536;13.432;2022-09-01T15:14:55;2.00;;;0.60;;
21334;SDS011;10826;52.536;13.432;2022-09-01T15:17:23;0.60;;;0.53;;
21334;SDS011;10826;52.536;13.432;2022-09-01T15:19:50;0.73;;;0.57;;
21334;SDS011;10826;52.536;13.432;2022-09-01T15:22:16;1.00;;;0.97;;
21334;SDS011;10826;52.536;13.432;2022-09-01T15:24:42;2.10;;;1.03;;
21334;SDS011;10826;52.536;13.432;2022-09-01T15:27:08;1.70;;;0.90;;
21334;SDS011;10826;52.536;13.432;2022-09-01T15:29:35;1.10;;;1.00;;
21334;SDS011;10826;52.536;13.432;2022-09-01T15:32:09;0.70;;;0.70;;
21334;SDS011;10826;52.536;13.432;2022-09-01T15:34:35;2.87;;;0.70;;
21334;SDS011;10826;52.536;13.432;2022-09-01T15:37:01;0.80;;;0.73;;
21334;SDS011;10826;52.536;13.432;2022-09-01T15:39:31;0.77;;;0.77;;
21334;SDS011;10826;52.536;13.432;2022-09-01T15:41:57;1.33;;;0.80;;
21334;SDS011;10826;52.536;13.432;2022-09-01T15:44:23;1.67;;;0.90;;
21334;SDS011;10826;52.536;13.432;2022-09-01T15:46:49;1.60;;;0.80;;
21334;SDS011;10826;52.536;13.432;2022-09-01T15:49:15;0.70;;;0.70;;
21334;SDS011;10826;52.536;13.432;2022-09-01T15:51:43;0.97;;;0.80;;
21334;SDS011;10826;52.536;13.432;2022-09-01T15:54:14;0.40;;;0.40;;
21334;SDS011;10826;52.536;13.432;2022-09-01T15:56:44;0.90;;;0.90;;
21334;SDS011;10826;52.536;13.432;2022-09-01T15:59:11;0.77;;;0.77;;
21334;SDS011;10826;52.536;13.432;2022-09-01T16:01:41;1.30;;;1.10;;
21334;SDS011;10826;52.536;13.432;2022-09-01T16:04:10;1.13;;;1.13;;
21334;SDS011;10826;52.536;13.432;2022-09-01T16:06:41;0.70;;;0.70;;
21334;SDS011;10826;52.536;13.432;2022-09-01T16:09:08;2.67;;;0.80;;
21334;SDS011;10826;52.536;13.432;2022-09-01T16:11:36;1.00;;;0.90;;
21334;SDS011;10826;52.536;13.432;2022-09-01T16:14:05;0.60;;;0.60;;